createdAt,value
2023-03-18T08:37:15.002Z,13.37
2023-03-18T08:47:16.741Z,12.03
2023-03-18T08:57:18.736Z,10.83
2023-03-18T09:07:20.395Z,14.03
2023-03-18T09:17:31.978Z,9.67
2023-03-18T09:27:40.954Z,17.87
2023-03-18T09:37:43.711Z,8.67
2023-03-18T09:47:56.178Z,4.63
2023-03-18T09:58:03.459Z,4.80
2023-03-18T10:08:31.711Z,5.17
2023-03-18T10:18:43.242Z,3.50
2023-03-18T10:28:51.157Z,5.87
2023-03-18T10:38:54.967Z,6.40
2023-03-18T10:49:01.894Z,4.73
2023-03-18T10:59:18.722Z,4.93
2023-03-18T11:09:36.418Z,4.37
2023-03-18T11:19:41.705Z,5.13
2023-03-18T11:29:49.619Z,5.30
2023-03-18T11:39:54.718Z,4.60
2023-03-18T11:50:04.092Z,4.63
2023-03-18T12:00:18.855Z,4.20
2023-03-18T12:10:41.568Z,7.80
2023-03-18T12:20:53.447Z,5.00
2023-03-18T12:31:39.949Z,5.50
2023-03-18T12:41:54.636Z,15.00
2023-03-18T12:52:00.479Z,2.30
2023-03-18T13:02:28.353Z,14.03
2023-03-18T13:12:37.762Z,5.03
2023-03-18T13:22:42.388Z,5.80
2023-03-18T13:33:05.386Z,4.77
2023-03-18T13:43:14.392Z,4.53
2023-03-18T13:53:29.339Z,10.87
2023-03-18T14:03:43.027Z,5.87
2023-03-18T14:13:48.443Z,3.50
2023-03-18T14:24:12.488Z,6.50
2023-03-18T14:34:17.694Z,3.60
2023-03-18T14:44:26.952Z,4.68
2023-03-18T14:54:31.459Z,4.05
2023-03-18T15:04:33.292Z,3.85
2023-03-18T15:14:35.007Z,4.20
2023-03-18T15:24:37.534Z,6.60
2023-03-18T15:34:42.211Z,2.43
2023-03-18T15:44:46.622Z,4.90
2023-03-18T15:54:48.465Z,5.33
2023-03-18T16:04:50.341Z,6.47
2023-03-18T16:16:36.669Z,2.70
2023-03-18T16:26:38.449Z,2.80
2023-03-18T16:36:40.179Z,5.03
2023-03-18T16:51:46.711Z,3.30
2023-03-18T17:01:48.740Z,5.17
2023-03-18T17:11:53.038Z,9.90
2023-03-18T17:21:54.784Z,7.13
2023-03-18T17:31:56.848Z,5.60
2023-03-18T17:41:58.456Z,8.33
2023-03-18T17:52:00.153Z,9.80
2023-03-18T18:02:01.940Z,12.00
2023-03-18T18:12:05.052Z,16.60
2023-03-18T18:22:16.376Z,13.67
2023-03-18T18:32:18.909Z,13.90
2023-03-18T18:42:20.520Z,12.30
2023-03-18T18:52:22.186Z,17.63
2023-03-18T19:02:30.077Z,12.43
2023-03-18T19:12:31.904Z,20.57
2023-03-18T19:22:33.653Z,15.70
2023-03-18T19:32:35.282Z,16.83
2023-03-18T19:42:37.134Z,16.73
2023-03-18T19:52:38.734Z,12.40
2023-03-18T20:02:40.496Z,29.37
2023-03-18T20:12:50.250Z,21.73
2023-03-18T20:23:01.723Z,16.60
2023-03-18T20:33:05.477Z,20.43
2023-03-18T20:43:09.834Z,18.87
2023-03-18T20:56:58.944Z,14.03
2023-03-18T21:07:00.567Z,15.67
2023-03-18T21:17:02.254Z,22.03
2023-03-18T21:27:05.604Z,13.27
2023-03-18T21:37:15.387Z,16.97
2023-03-18T21:47:22.590Z,11.90
2023-03-18T21:57:25.695Z,8.90
2023-03-18T22:07:29.741Z,12.40
2023-03-18T22:17:33.734Z,11.73
2023-03-18T22:27:35.538Z,10.67
2023-03-18T22:37:37.136Z,12.37
2023-03-18T22:47:38.704Z,12.57
2023-03-18T23:04:00.685Z,14.83
2023-03-18T23:14:03.992Z,14.30
2023-03-18T23:24:05.970Z,12.33
2023-03-18T23:34:07.616Z,11.60
2023-03-18T23:44:09.221Z,13.27
2023-03-18T23:54:11.122Z,9.47
